Time;durP1;ratioP1;P1;durP2;ratioP2;P2;SDS_P1;SDS_P2;PMS_P1;PMS_P2;Temp;Humidity;BMP_temperature;BMP_pressure;BME280_temperature;BME280_humidity;BME280_pressure;Samples;Min_cycle;Max_cycle;Signal;HPM_P1;HPM_P2
2022/09/13 00:00:28;;;;;;;14.05;8.48;;;18.80;99.90;;;;;;4952814;28;20130;-38
2022/09/13 00:02:53;;;;;;;11.40;7.88;;;18.80;99.90;;;;;;4954427;28;20035;-37
2022/09/13 00:05:19;;;;;;;12.27;9.02;;;18.80;99.90;;;;;;4948520;28;20081;-38
2022/09/13 00:07:45;;;;;;;15.20;9.82;;;18.80;99.90;;;;;;4949372;28;20043;-38
2022/09/13 00:10:11;;;;;;;11.45;6.93;;;18.80;99.90;;;;;;4954825;28;20035;-37
2022/09/13 00:12:36;;;;;;;12.57;8.90;;;18.70;99.90;;;;;;4953070;29;20501;-39
2022/09/13 00:15:03;;;;;;;14.65;9.68;;;18.70;99.90;;;;;;4951621;28;20045;-39
2022/09/13 00:17:29;;;;;;;12.38;8.77;;;18.70;99.90;;;;;;4951770;28;20591;-38
2022/09/13 00:19:54;;;;;;;13.75;9.77;;;18.70;99.90;;;;;;4952187;28;20412;-39
2022/09/13 00:22:20;;;;;;;13.55;9.32;;;18.80;99.90;;;;;;4949613;28;20035;-38
2022/09/13 00:24:47;;;;;;;11.38;8.65;;;18.80;99.90;;;;;;4952990;28;20050;-39
2022/09/13 00:27:12;;;;;;;13.32;8.75;;;18.80;99.90;;;;;;4951314;28;20291;-38
2022/09/13 00:29:38;;;;;;;9.52;6.68;;;18.80;99.90;;;;;;4950492;28;20043;-37
2022/09/13 00:32:04;;;;;;;10.88;8.18;;;18.70;99.90;;;;;;4950515;28;20083;-39
2022/09/13 00:34:30;;;;;;;7.78;6.22;;;18.70;99.90;;;;;;4950915;28;20035;-37
2022/09/13 00:36:55;;;;;;;11.45;8.82;;;18.70;99.90;;;;;;4949477;28;20043;-37
2022/09/13 00:39:21;;;;;;;11.75;7.95;;;18.70;99.90;;;;;;4955033;29;20035;-38
2022/09/13 00:41:47;;;;;;;10.18;6.45;;;18.70;99.90;;;;;;4949715;28;20095;-38
2022/09/13 00:44:51;;;;;;;10.48;7.53;;;18.60;99.90;;;;;;4952077;28;20079;-38
2022/09/13 00:47:21;;;;;;;10.70;7.03;;;18.60;99.90;;;;;;4948072;28;20038;-38
2022/09/13 00:49:50;;;;;;;10.35;7.60;;;18.60;99.90;;;;;;4950892;28;20047;-38
2022/09/13 00:52:20;;;;;;;9.88;6.68;;;18.60;99.90;;;;;;4954252;29;20500;-39
2022/09/13 00:54:55;;;;;;;12.05;8.38;;;18.60;99.90;;;;;;4953524;28;20408;-38
2022/09/13 00:57:22;;;;;;;10.95;7.22;;;18.60;99.90;;;;;;4950302;28;20039;-38
2022/09/13 01:00:03;;;;;;;9.73;7.60;;;18.70;99.90;;;;;;4947998;28;20115;-38
2022/09/13 01:02:29;;;;;;;9.68;5.88;;;18.60;99.90;;;;;;4940925;28;20039;-38
2022/09/13 01:04:55;;;;;;;7.80;6.03;;;18.60;99.90;;;;;;4937894;28;20062;-38
2022/09/13 01:07:21;;;;;;;9.20;6.38;;;18.50;99.90;;;;;;4948427;28;20400;-39
2022/09/13 01:09:50;;;;;;;9.50;6.45;;;18.50;99.90;;;;;;4948815;28;20035;-38
2022/09/13 01:12:48;;;;;;;9.18;6.50;;;18.50;99.90;;;;;;4948898;28;20059;-39
2022/09/13 01:15:14;;;;;;;11.80;6.72;;;18.50;99.90;;;;;;4950852;28;20043;-38
2022/09/13 01:17:41;;;;;;;8.95;6.88;;;18.40;99.90;;;;;;4951087;28;20099;-38
2022/09/13 01:20:08;;;;;;;7.88;5.35;;;18.40;99.90;;;;;;4949311;28;20047;-38
2022/09/13 01:22:55;;;;;;;12.27;7.00;;;18.40;99.90;;;;;;4953012;28;20054;-39
2022/09/13 01:25:55;;;;;;;14.05;7.57;;;18.30;99.90;;;;;;4951762;28;20082;-38
2022/09/13 01:28:24;;;;;;;7.68;5.00;;;18.30;99.90;;;;;;4950861;28;20515;-39
2022/09/13 01:30:58;;;;;;;9.35;6.03;;;18.30;99.90;;;;;;4949696;28;20516;-39
2022/09/13 01:33:32;;;;;;;7.78;5.30;;;18.30;99.90;;;;;;4952821;29;20440;-38
2022/09/13 01:36:21;;;;;;;11.32;7.28;;;18.30;99.90;;;;;;4948150;28;20047;-38
2022/09/13 01:39:07;;;;;;;9.65;7.50;;;18.30;99.90;;;;;;4952034;28;20500;-39
2022/09/13 01:41:59;;;;;;;9.85;7.07;;;18.30;99.90;;;;;;4945360;28;20047;-38
2022/09/13 01:44:43;;;;;;;10.23;6.45;;;18.30;99.90;;;;;;4946931;28;20107;-38
2022/09/13 01:47:29;;;;;;;11.27;7.00;;;18.20;99.90;;;;;;4951940;28;20130;-38
2022/09/13 01:50:18;;;;;;;11.10;7.13;;;18.20;99.90;;;;;;4947124;28;20097;-38
2022/09/13 01:52:44;;;;;;;11.27;7.78;;;18.20;99.90;;;;;;4948428;28;20043;-39
2022/09/13 01:55:31;;;;;;;8.52;6.78;;;18.20;99.90;;;;;;4949159;28;20093;-38
2022/09/13 01:58:10;;;;;;;8.48;6.15;;;18.20;99.90;;;;;;4949537;28;20046;-38
2022/09/13 02:00:44;;;;;;;8.30;6.22;;;18.20;99.90;;;;;;4952231;28;20042;-39
2022/09/13 02:03:35;;;;;;;9.50;6.80;;;18.20;99.90;;;;;;4948731;28;20118;-38
2022/09/13 02:06:10;;;;;;;8.88;6.53;;;18.20;99.90;;;;;;4945972;28;20043;-39
2022/09/13 02:08:42;;;;;;;10.55;6.97;;;18.20;99.90;;;;;;4949959;28;20070;-38
2022/09/13 02:11:13;;;;;;;9.82;7.38;;;18.20;99.90;;;;;;4950680;28;20059;-39
2022/09/13 02:13:56;;;;;;;9.60;6.60;;;18.20;99.90;;;;;;4953289;28;20049;-38
2022/09/13 02:16:37;;;;;;;11.23;7.60;;;18.20;99.90;;;;;;4948214;28;20452;-38
2022/09/13 02:19:18;;;;;;;10.88;7.68;;;18.20;99.90;;;;;;4945604;28;20047;-38
2022/09/13 02:21:50;;;;;;;10.15;6.68;;;18.20;99.90;;;;;;4951128;28;20035;-63
2022/09/13 02:24:25;;;;;;;11.43;7.53;;;18.20;99.90;;;;;;4948847;28;20070;-40
2022/09/13 02:26:53;;;;;;;9.15;6.40;;;18.20;99.90;;;;;;4950797;28;20544;-39
2022/09/13 02:29:23;;;;;;;10.00;6.07;;;18.10;99.90;;;;;;4953771;28;20114;-38
2022/09/13 02:32:04;;;;;;;9.52;6.55;;;18.10;99.90;;;;;;4953055;28;20067;-40
2022/09/13 02:34:40;;;;;;;10.07;7.50;;;18.10;99.90;;;;;;4946590;28;20614;-39
2022/09/13 02:37:08;;;;;;;8.93;6.15;;;18.00;99.90;;;;;;4951776;28;20062;-39
2022/09/13 02:39:40;;;;;;;9.80;5.80;;;18.10;99.90;;;;;;4948561;28;20039;-38
2022/09/13 02:42:18;;;;;;;9.70;7.57;;;18.00;99.90;;;;;;4951593;28;20500;-39
2022/09/13 02:44:52;;;;;;;11.35;7.63;;;18.10;99.90;;;;;;4929220;29;20050;-38
2022/09/13 02:47:33;;;;;;;11.05;8.07;;;18.10;99.90;;;;;;4951501;28;20039;-38
2022/09/13 02:50:10;;;;;;;11.52;7.60;;;18.10;99.90;;;;;;4945675;28;20039;-38
2022/09/13 02:53:03;;;;;;;8.40;5.88;;;18.10;99.90;;;;;;4952262;28;20448;-38
2022/09/13 02:55:43;;;;;;;11.80;8.18;;;18.10;99.90;;;;;;4947591;28;20043;-37
2022/09/13 02:58:38;;;;;;;9.27;6.00;;;18.10;99.90;;;;;;4952073;28;20043;-37
2022/09/13 03:01:04;;;;;;;11.10;6.80;;;18.10;99.90;;;;;;4947486;28;20416;-38
2022/09/13 03:03:29;;;;;;;9.85;8.05;;;18.10;99.90;;;;;;4948603;28;20133;-38
2022/09/13 03:05:55;;;;;;;10.23;7.95;;;18.10;99.90;;;;;;4947646;28;20039;-37
2022/09/13 03:08:22;;;;;;;10.93;7.80;;;18.10;99.90;;;;;;4951118;29;20079;-37
2022/09/13 03:11:09;;;;;;;11.98;8.65;;;18.20;99.90;;;;;;4949505;28;20133;-39
2022/09/13 03:13:42;;;;;;;10.75;6.82;;;18.20;99.90;;;;;;4944293;28;20049;-38
2022/09/13 03:16:38;;;;;;;9.80;7.18;;;18.20;99.90;;;;;;4949989;28;20496;-37
2022/09/13 03:19:28;;;;;;;13.43;9.68;;;18.20;99.90;;;;;;4944166;28;20039;-37
2022/09/13 03:22:01;;;;;;;12.60;8.18;;;18.20;99.90;;;;;;4950139;28;20074;-37
2022/09/13 03:24:49;;;;;;;13.60;8.93;;;18.10;99.90;;;;;;4948274;28;20512;-38
2022/09/13 03:27:42;;;;;;;17.15;10.38;;;18.10;99.90;;;;;;4950587;28;20272;-38
2022/09/13 03:30:11;;;;;;;14.50;9.90;;;18.20;99.90;;;;;;4947656;28;20043;-38
2022/09/13 03:33:01;;;;;;;10.40;8.27;;;18.20;99.90;;;;;;4948013;28;20101;-37
2022/09/13 03:35:48;;;;;;;11.23;7.68;;;18.20;99.90;;;;;;4952816;28;20047;-38
2022/09/13 03:38:23;;;;;;;9.30;6.93;;;18.20;99.90;;;;;;4936635;29;20047;-37
2022/09/13 03:40:53;;;;;;;12.20;9.13;;;18.20;99.90;;;;;;4955014;28;20051;-39
2022/09/13 03:43:25;;;;;;;12.85;10.00;;;18.20;99.90;;;;;;4933192;28;20394;-38
2022/09/13 03:45:59;;;;;;;13.60;9.23;;;18.20;99.90;;;;;;4954524;29;20039;-38
2022/09/13 03:48:26;;;;;;;8.85;6.90;;;18.20;99.90;;;;;;4947374;28;20485;-37
2022/09/13 03:50:53;;;;;;;12.90;9.35;;;18.10;99.90;;;;;;4949339;28;20085;-38
2022/09/13 03:53:31;;;;;;;12.10;9.20;;;18.10;99.90;;;;;;4960575;28;20074;-38
2022/09/13 03:55:56;;;;;;;11.30;8.07;;;18.10;99.90;;;;;;4944560;28;20130;-39
2022/09/13 03:58:24;;;;;;;10.75;7.57;;;18.10;99.90;;;;;;4955282;28;20149;-38
2022/09/13 04:00:52;;;;;;;9.98;6.53;;;18.10;99.90;;;;;;4937610;29;20086;-37
2022/09/13 04:03:17;;;;;;;11.38;7.70;;;18.20;99.90;;;;;;4946864;28;20504;-37
2022/09/13 04:05:43;;;;;;;9.45;7.00;;;18.10;99.90;;;;;;4954959;28;20053;-37
2022/09/13 04:08:08;;;;;;;9.75;6.85;;;18.10;99.90;;;;;;4950831;28;20126;-37
2022/09/13 04:10:36;;;;;;;11.82;7.97;;;18.10;99.90;;;;;;4947404;28;20047;-39
2022/09/13 04:13:03;;;;;;;9.52;6.00;;;18.10;99.90;;;;;;4951788;28;20730;-39
2022/09/13 04:15:30;;;;;;;10.18;7.60;;;18.10;99.90;;;;;;4952466;28;20054;-38
2022/09/13 04:17:56;;;;;;;9.32;7.13;;;18.10;99.90;;;;;;4949729;28;20610;-37
2022/09/13 04:20:21;;;;;;;12.27;8.07;;;18.10;99.90;;;;;;4952999;28;20043;-39
2022/09/13 04:22:52;;;;;;;14.23;8.20;;;18.10;99.90;;;;;;4947887;28;20053;-38
2022/09/13 04:25:19;;;;;;;11.98;9.05;;;18.20;99.90;;;;;;4950330;28;20047;-38
2022/09/13 04:27:45;;;;;;;11.20;8.07;;;18.20;99.90;;;;;;4953420;28;20163;-38
2022/09/13 04:30:11;;;;;;;12.93;8.57;;;18.10;99.90;;;;;;4948640;28;20495;-39
2022/09/13 04:32:37;;;;;;;11.38;8.02;;;18.20;99.90;;;;;;4951224;28;20497;-44
2022/09/13 04:35:02;;;;;;;11.05;8.30;;;18.10;99.90;;;;;;4946221;28;20050;-38
2022/09/13 04:37:28;;;;;;;8.85;6.15;;;18.10;99.90;;;;;;4952303;28;20055;-38
2022/09/13 04:39:54;;;;;;;10.27;6.80;;;18.00;99.90;;;;;;4951120;28;20110;-38
2022/09/13 04:42:19;;;;;;;10.98;6.72;;;18.00;99.90;;;;;;4950053;28;20039;-38
2022/09/13 04:44:48;;;;;;;12.13;7.32;;;18.10;99.90;;;;;;4948398;28;20050;-40
2022/09/13 04:47:13;;;;;;;11.35;7.40;;;18.10;99.90;;;;;;4950470;28;20374;-39
2022/09/13 04:49:39;;;;;;;10.52;6.93;;;18.10;99.90;;;;;;4949713;28;20373;-40
2022/09/13 04:52:05;;;;;;;8.70;5.85;;;18.10;99.90;;;;;;4951634;28;20042;-39
2022/09/13 04:54:30;;;;;;;11.90;8.30;;;18.10;99.90;;;;;;4949552;28;20064;-39
2022/09/13 04:56:56;;;;;;;11.88;8.13;;;18.10;99.90;;;;;;4939046;28;20039;-38
2022/09/13 04:59:22;;;;;;;9.68;6.32;;;18.10;99.90;;;;;;4949746;28;20043;-39
2022/09/13 05:01:47;;;;;;;9.05;5.38;;;18.10;99.90;;;;;;4949729;28;20043;-39
2022/09/13 05:04:13;;;;;;;10.18;5.32;;;18.10;99.90;;;;;;4946238;28;20051;-40
2022/09/13 05:06:39;;;;;;;7.22;5.72;;;18.10;99.90;;;;;;4954512;28;20062;-39
2022/09/13 05:09:05;;;;;;;7.70;4.50;;;18.10;99.90;;;;;;4952899;28;21698;-39
2022/09/13 05:11:31;;;;;;;6.13;3.72;;;18.10;99.90;;;;;;4953319;28;20057;-38
2022/09/13 05:13:58;;;;;;;6.90;3.63;;;18.10;99.90;;;;;;4946616;28;20039;-39
2022/09/13 05:16:26;;;;;;;10.30;4.13;;;18.20;99.90;;;;;;4950939;28;20545;-40
2022/09/13 05:18:52;;;;;;;5.82;3.10;;;18.20;99.90;;;;;;4948438;28;20043;-38
2022/09/13 05:21:18;;;;;;;4.50;2.70;;;18.20;99.90;;;;;;4950248;28;20147;-37
2022/09/13 05:23:47;;;;;;;6.78;2.88;;;18.20;99.90;;;;;;4933986;28;20047;-39
2022/09/13 05:26:13;;;;;;;5.45;3.15;;;18.20;99.90;;;;;;4952151;28;20077;-40
2022/09/13 05:28:38;;;;;;;6.43;2.58;;;18.20;99.90;;;;;;4950663;28;20492;-39
2022/09/13 05:31:16;;;;;;;6.35;2.67;;;18.20;99.90;;;;;;4942037;28;20549;-40
2022/09/13 05:33:43;;;;;;;8.07;2.88;;;18.20;99.90;;;;;;4945328;28;20126;-40
2022/09/13 05:36:09;;;;;;;8.13;2.55;;;18.20;99.90;;;;;;4948344;28;20070;-39
2022/09/13 05:38:34;;;;;;;3.67;1.98;;;18.20;99.90;;;;;;4945597;28;20035;-39
2022/09/13 05:41:03;;;;;;;3.88;2.00;;;18.10;99.90;;;;;;4951449;28;20047;-39
2022/09/13 05:43:32;;;;;;;5.25;1.60;;;18.10;99.90;;;;;;4945119;28;20133;-38
2022/09/13 05:46:04;;;;;;;2.13;1.35;;;18.10;99.90;;;;;;4949320;28;20039;-39
2022/09/13 05:48:31;;;;;;;5.78;1.60;;;18.10;99.90;;;;;;4943771;28;20031;-39
2022/09/13 05:51:10;;;;;;;4.00;1.42;;;18.10;99.90;;;;;;4942157;28;20062;-39
2022/09/13 05:53:40;;;;;;;4.93;1.40;;;18.10;99.90;;;;;;4942080;28;20109;-39
2022/09/13 05:56:08;;;;;;;5.45;1.40;;;18.10;99.90;;;;;;4939317;28;20745;-45
2022/09/13 05:58:37;;;;;;;3.72;1.13;;;18.10;99.90;;;;;;4939608;28;20039;-37
2022/09/13 06:01:03;;;;;;;4.05;0.98;;;18.10;99.90;;;;;;4941251;28;20066;-38
2022/09/13 06:03:29;;;;;;;3.15;0.90;;;18.10;99.90;;;;;;4944156;28;20416;-39
2022/09/13 06:05:57;;;;;;;3.78;0.77;;;18.10;99.90;;;;;;4938360;28;20036;-39
2022/09/13 06:08:24;;;;;;;2.63;0.80;;;18.10;99.90;;;;;;4941876;28;20090;-37
2022/09/13 06:10:59;;;;;;;3.75;0.60;;;18.10;99.90;;;;;;4940912;28;20066;-37
2022/09/13 06:13:26;;;;;;;2.70;0.90;;;18.10;99.90;;;;;;4941418;28;20050;-39
2022/09/13 06:15:52;;;;;;;4.10;0.88;;;18.10;99.90;;;;;;4939307;28;20297;-38
2022/09/13 06:18:18;;;;;;;3.30;0.50;;;18.20;99.90;;;;;;4942404;28;20039;-39
2022/09/13 06:20:44;;;;;;;4.78;0.90;;;18.20;99.90;;;;;;4939567;28;20039;-39
2022/09/13 06:23:10;;;;;;;3.67;0.80;;;18.20;99.90;;;;;;4924116;28;20047;-40
2022/09/13 06:25:36;;;;;;;2.03;0.60;;;18.20;99.90;;;;;;4939078;28;20043;-41
2022/09/13 06:28:03;;;;;;;3.20;0.80;;;18.20;99.90;;;;;;4942927;28;20053;-39
2022/09/13 06:30:28;;;;;;;3.38;0.88;;;18.20;99.90;;;;;;4940573;28;20091;-40
2022/09/13 06:32:57;;;;;;;2.45;0.80;;;18.10;99.90;;;;;;4946066;28;20032;-37
2022/09/13 06:35:22;;;;;;;3.33;0.88;;;18.10;99.90;;;;;;4942549;28;20497;-37
2022/09/13 06:37:49;;;;;;;3.83;0.75;;;18.10;99.90;;;;;;4944095;28;20047;-38
2022/09/13 06:40:15;;;;;;;2.90;0.90;;;18.10;99.90;;;;;;4941697;28;20051;-38
2022/09/13 06:42:41;;;;;;;2.33;0.60;;;18.10;99.90;;;;;;4945487;28;20043;-37
2022/09/13 06:45:07;;;;;;;2.47;0.60;;;18.10;99.90;;;;;;4940698;28;21222;-39
2022/09/13 06:47:33;;;;;;;1.85;0.60;;;18.10;99.90;;;;;;4942118;28;20039;-37
2022/09/13 06:49:59;;;;;;;3.10;0.73;;;18.10;99.90;;;;;;4941964;28;20035;-36
2022/09/13 06:52:26;;;;;;;3.17;0.50;;;18.10;99.90;;;;;;4907767;28;20113;-36
2022/09/13 06:54:52;;;;;;;3.55;0.60;;;18.10;99.90;;;;;;4942279;28;20143;-37
2022/09/13 06:57:18;;;;;;;1.92;0.57;;;18.10;99.90;;;;;;4941619;28;20047;-38
2022/09/13 06:59:45;;;;;;;1.40;0.40;;;18.10;99.90;;;;;;4940836;28;20039;-38
2022/09/13 07:02:11;;;;;;;1.55;0.50;;;18.20;99.90;;;;;;4940820;28;20043;-39
2022/09/13 07:04:37;;;;;;;2.22;0.90;;;18.20;99.90;;;;;;4942736;28;20043;-39
2022/09/13 07:07:02;;;;;;;2.53;0.40;;;18.10;99.90;;;;;;4939945;28;21062;-39
2022/09/13 07:09:28;;;;;;;5.40;0.60;;;18.10;99.90;;;;;;4941926;28;20031;-39
2022/09/13 07:11:55;;;;;;;5.43;0.60;;;18.10;99.90;;;;;;4940963;28;20108;-39
2022/09/13 07:14:23;;;;;;;5.63;0.70;;;18.10;99.90;;;;;;4942437;28;20523;-39
2022/09/13 07:16:50;;;;;;;2.47;0.40;;;18.10;99.90;;;;;;4942011;28;20520;-39
2022/09/13 07:19:19;;;;;;;1.25;0.50;;;18.10;99.90;;;;;;4941655;28;20069;-36
2022/09/13 07:21:45;;;;;;;2.85;0.50;;;18.10;99.90;;;;;;4942589;28;20543;-37
2022/09/13 07:24:11;;;;;;;1.88;0.40;;;18.20;99.90;;;;;;4941272;28;20051;-37
2022/09/13 07:26:37;;;;;;;2.20;0.70;;;18.20;99.90;;;;;;4939189;28;20044;-37
2022/09/13 07:29:09;;;;;;;3.22;0.50;;;18.20;99.90;;;;;;4936725;28;20039;-37
2022/09/13 07:31:37;;;;;;;2.10;0.70;;;18.20;99.90;;;;;;4938266;28;20035;-38
2022/09/13 07:34:06;;;;;;;4.45;0.57;;;18.30;99.90;;;;;;4940698;28;20039;-38
2022/09/13 07:36:34;;;;;;;2.65;0.50;;;18.40;99.90;;;;;;4940652;28;20047;-39
2022/09/13 07:39:00;;;;;;;2.65;0.80;;;18.40;99.90;;;;;;4939213;28;20054;-39
2022/09/13 07:41:27;;;;;;;4.95;0.65;;;18.60;99.90;;;;;;4946263;28;20043;-40
2022/09/13 07:43:54;;;;;;;3.10;0.70;;;18.60;99.90;;;;;;4942758;28;20059;-38
2022/09/13 07:46:27;;;;;;;3.25;0.65;;;18.70;99.90;;;;;;4939754;28;20039;-39
2022/09/13 07:48:55;;;;;;;3.80;0.80;;;18.70;99.90;;;;;;4944368;28;20409;-39
2022/09/13 07:51:26;;;;;;;2.33;0.80;;;18.80;99.90;;;;;;4927292;29;20039;-38
2022/09/13 07:53:56;;;;;;;4.80;0.70;;;18.80;99.90;;;;;;4940273;28;20102;-37
2022/09/13 07:56:24;;;;;;;4.72;0.85;;;18.90;99.90;;;;;;4941000;28;20042;-37
2022/09/13 07:58:53;;;;;;;2.60;0.68;;;18.90;99.90;;;;;;4942204;28;20500;-44
2022/09/13 08:01:23;;;;;;;5.28;0.77;;;18.90;99.90;;;;;;4942571;28;20129;-37
2022/09/13 08:03:55;;;;;;;3.22;0.50;;;18.90;99.90;;;;;;4939914;28;20051;-39
2022/09/13 08:06:21;;;;;;;4.90;0.70;;;18.80;99.90;;;;;;4941428;28;20548;-38
2022/09/13 08:08:47;;;;;;;2.33;0.63;;;18.70;99.90;;;;;;4943279;28;20416;-38
2022/09/13 08:11:27;;;;;;;2.88;0.80;;;18.80;99.90;;;;;;4939300;28;20066;-38
2022/09/13 08:13:53;;;;;;;4.43;0.88;;;19.00;99.90;;;;;;4942502;28;20047;-38
2022/09/13 08:16:20;;;;;;;8.00;0.90;;;19.20;99.90;;;;;;4941906;28;20129;-37
2022/09/13 08:18:48;;;;;;;3.80;0.60;;;19.40;99.90;;;;;;4947856;28;20039;-37
2022/09/13 08:21:14;;;;;;;3.90;0.43;;;19.50;99.90;;;;;;4946015;28;20920;-38
2022/09/13 08:23:41;;;;;;;3.20;0.52;;;19.60;99.90;;;;;;4943219;28;20049;-37
2022/09/13 08:26:07;;;;;;;5.00;0.65;;;19.70;99.90;;;;;;4943642;28;20575;-39
2022/09/13 08:28:39;;;;;;;6.00;1.10;;;19.70;99.90;;;;;;4932085;28;20057;-40
2022/09/13 08:31:11;;;;;;;4.93;1.57;;;19.60;99.90;;;;;;4943755;28;20046;-39
2022/09/13 08:33:37;;;;;;;9.25;1.55;;;19.70;99.90;;;;;;4941139;28;20079;-39
2022/09/13 08:36:03;;;;;;;4.47;1.60;;;19.90;99.90;;;;;;4942973;28;20202;-38
2022/09/13 08:38:29;;;;;;;7.47;2.03;;;20.00;99.90;;;;;;4943160;28;20047;-40
2022/09/13 08:40:59;;;;;;;9.13;2.25;;;20.00;99.90;;;;;;4948398;28;20552;-38
2022/09/13 08:43:38;;;;;;;6.63;1.98;;;19.90;99.90;;;;;;4945109;28;20068;-39
2022/09/13 08:46:27;;;;;;;6.38;1.50;;;20.00;99.90;;;;;;4930733;28;20130;-38
2022/09/13 08:48:57;;;;;;;6.55;1.90;;;20.00;99.90;;;;;;4945292;28;20035;-38
2022/09/13 08:51:36;;;;;;;6.47;1.95;;;20.00;99.90;;;;;;4944577;28;20038;-39
2022/09/13 08:54:02;;;;;;;3.97;1.67;;;20.10;99.90;;;;;;4945397;28;20147;-38
2022/09/13 08:57:10;;;;;;;5.57;1.60;;;20.30;99.90;;;;;;4943021;28;20039;-37
2022/09/13 08:59:46;;;;;;;6.65;2.17;;;20.40;99.90;;;;;;4907494;28;20087;-38
2022/09/13 09:02:42;;;;;;;5.80;1.60;;;20.50;99.90;;;;;;4942225;28;20047;-36
2022/09/13 09:05:19;;;;;;;7.53;1.73;;;20.60;99.90;;;;;;4943636;28;20499;-37
2022/09/13 09:07:53;;;;;;;1.70;0.52;;;20.70;99.90;;;;;;4941306;28;20568;-37
2022/09/13 09:10:36;;;;;;;3.53;0.40;;;20.80;99.90;;;;;;4942931;28;20508;-37
2022/09/13 09:13:04;;;;;;;2.22;0.40;;;20.70;99.90;;;;;;4946923;28;20043;-37
2022/09/13 09:15:37;;;;;;;5.50;0.70;;;20.60;99.90;;;;;;4948596;28;20058;-36
2022/09/13 09:18:17;;;;;;;4.65;0.60;;;20.60;99.90;;;;;;4946554;28;20509;-39
2022/09/13 09:20:48;;;;;;;4.82;0.60;;;20.50;99.90;;;;;;4948245;28;20049;-39
2022/09/13 09:23:18;;;;;;;2.88;0.40;;;20.50;99.90;;;;;;4943512;28;20603;-38
2022/09/13 09:25:45;;;;;;;4.00;0.50;;;20.60;99.90;;;;;;4944382;28;20786;-37
2022/09/13 09:28:14;;;;;;;1.60;0.30;;;20.70;99.90;;;;;;4953006;29;20482;-38
2022/09/13 09:30:58;;;;;;;2.85;0.55;;;20.70;99.90;;;;;;4951102;28;20053;-39
2022/09/13 09:33:33;;;;;;;2.08;0.50;;;20.80;99.90;;;;;;4951004;28;20043;-40
2022/09/13 09:36:12;;;;;;;0.28;0.22;;;20.90;99.90;;;;;;4951181;28;20531;-38
2022/09/13 09:38:41;;;;;;;5.60;0.50;;;20.90;99.90;;;;;;4953237;28;20050;-37
2022/09/13 09:41:29;;;;;;;3.30;0.40;;;20.90;99.90;;;;;;4944176;28;20098;-39
2022/09/13 09:44:03;;;;;;;0.95;0.20;;;21.00;99.90;;;;;;4945746;28;20497;-39
2022/09/13 09:46:33;;;;;;;2.58;0.38;;;21.10;99.90;;;;;;4950920;28;20057;-38
2022/09/13 09:52:07;;;;;;;5.40;0.47;;;21.20;99.90;;;;;;4948662;28;20568;-39
2022/09/13 09:54:36;;;;;;;3.22;0.47;;;21.30;99.90;;;;;;4941551;28;20047;-38
2022/09/13 09:57:01;;;;;;;4.50;0.50;;;21.40;99.90;;;;;;4945348;28;20560;-37
2022/09/13 09:59:30;;;;;;;3.30;0.52;;;21.50;99.90;;;;;;4952188;29;20047;-37
2022/09/13 10:01:57;;;;;;;4.13;0.68;;;21.70;99.90;;;;;;4926792;28;20086;-38
2022/09/13 10:04:24;;;;;;;2.95;0.70;;;21.70;99.80;;;;;;4949662;28;20532;-39
2022/09/13 10:07:06;;;;;;;1.92;0.60;;;21.50;99.90;;;;;;4948532;28;20043;-37
2022/09/13 10:09:32;;;;;;;;;;;21.40;99.70;;;;;;4948490;28;20049;-38
2022/09/13 10:11:59;;;;;;;1.75;0.70;;;21.30;97.70;;;;;;4945046;28;19926;-38
2022/09/13 10:14:40;;;;;;;3.33;0.60;;;21.50;99.30;;;;;;4947867;28;20106;-38
2022/09/13 10:17:16;;;;;;;;;;;21.70;98.90;;;;;;4944822;28;20139;-38
2022/09/13 10:20:11;;;;;;;3.40;0.50;;;21.90;96.20;;;;;;4951042;28;20295;-38
2022/09/13 10:22:37;;;;;;;2.58;0.40;;;22.00;95.90;;;;;;4944358;29;20047;-46
2022/09/13 10:25:30;;;;;;;1.92;0.40;;;21.80;97.20;;;;;;4941301;28;20040;-37
2022/09/13 10:27:59;;;;;;;2.47;0.57;;;21.60;96.00;;;;;;4946211;28;20581;-40
2022/09/13 10:30:56;;;;;;;2.10;0.60;;;21.50;97.10;;;;;;4946903;28;20596;-47
2022/09/13 10:33:30;;;;;;;2.55;0.30;;;21.60;95.90;;;;;;4949400;28;20048;-38
2022/09/13 10:35:59;;;;;;;2.22;0.40;;;21.50;96.00;;;;;;4946537;28;20078;-40
2022/09/13 10:38:32;;;;;;;1.73;0.28;;;21.50;94.80;;;;;;4946511;28;20504;-39
2022/09/13 10:41:02;;;;;;;2.25;0.30;;;21.50;95.50;;;;;;4947270;28;20130;-45
2022/09/13 10:43:29;;;;;;;0.98;0.30;;;21.60;95.00;;;;;;4949456;28;20054;-38
2022/09/13 10:45:57;;;;;;;3.45;0.50;;;21.80;95.10;;;;;;4943770;28;20790;-38
2022/09/13 10:48:23;;;;;;;0.57;0.20;;;21.80;93.90;;;;;;4946631;28;20437;-37
2022/09/13 10:51:04;;;;;;;3.20;0.40;;;21.90;93.90;;;;;;4948761;28;20039;-38
2022/09/13 10:53:36;;;;;;;2.30;0.30;;;21.90;92.50;;;;;;4955647;28;20035;-36
2022/09/13 10:56:03;;;;;;;1.63;0.30;;;21.90;93.10;;;;;;4947005;28;20047;-38
2022/09/13 10:58:29;;;;;;;1.30;0.30;;;22.00;92.40;;;;;;4946673;28;20047;-36
2022/09/13 11:01:32;;;;;;;2.38;0.30;;;22.10;91.30;;;;;;4946500;28;20046;-37
2022/09/13 11:04:15;;;;;;;;;;;22.10;90.80;;;;;;4946712;28;20035;-37
2022/09/13 11:06:55;;;;;;;4.03;0.40;;;22.10;90.60;;;;;;4929937;29;19929;-38
2022/09/13 11:09:47;;;;;;;4.70;0.52;;;22.20;89.60;;;;;;4946660;28;20126;-38
2022/09/13 11:12:27;;;;;;;1.40;0.30;;;22.10;89.10;;;;;;4928930;29;20061;-38
2022/09/13 11:15:17;;;;;;;2.38;0.40;;;22.10;83.00;;;;;;4944536;28;20306;-36
2022/09/13 11:18:27;;;;;;;3.85;0.40;;;22.20;88.70;;;;;;4946865;28;20050;-37
2022/09/13 11:21:08;;;;;;;3.75;0.63;;;22.30;88.00;;;;;;4945077;28;20047;-40
2022/09/13 11:23:49;;;;;;;3.92;0.60;;;22.40;89.50;;;;;;4947568;28;20501;-39
2022/09/13 11:26:37;;;;;;;2.40;0.60;;;22.30;88.70;;;;;;4949062;28;20457;-37
2022/09/13 11:29:27;;;;;;;2.92;0.63;;;22.30;85.30;;;;;;4947224;28;20039;-36
2022/09/13 11:32:19;;;;;;;1.45;0.40;;;22.30;84.40;;;;;;4948799;28;20062;-39
2022/09/13 11:35:11;;;;;;;2.45;0.50;;;22.40;84.60;;;;;;4940413;28;20074;-39
2022/09/13 11:38:03;;;;;;;2.40;0.50;;;22.30;84.00;;;;;;4928201;28;20043;-37
2022/09/13 11:40:33;;;;;;;3.83;0.60;;;22.30;80.70;;;;;;4946460;28;20035;-37
2022/09/13 11:43:16;;;;;;;2.50;0.40;;;22.40;83.70;;;;;;4948750;28;20493;-37
2022/09/13 11:45:47;;;;;;;4.70;0.57;;;22.50;83.70;;;;;;4947872;28;20035;-37
2022/09/13 11:48:41;;;;;;;3.53;0.50;;;22.70;82.50;;;;;;4952438;28;20043;-37
2022/09/13 11:51:26;;;;;;;4.05;0.70;;;22.90;81.90;;;;;;4948283;28;20563;-37
2022/09/13 11:54:39;;;;;;;2.97;0.68;;;23.00;81.20;;;;;;4949863;28;20047;-39
2022/09/13 11:57:18;;;;;;;3.60;0.40;;;22.90;78.70;;;;;;4949458;28;20485;-39
2022/09/13 11:59:56;;;;;;;1.15;0.30;;;22.80;80.70;;;;;;4951471;28;20054;-37
2022/09/13 12:02:37;;;;;;;3.88;0.60;;;22.80;80.50;;;;;;4953102;28;20035;-38
2022/09/13 12:05:21;;;;;;;3.40;0.50;;;22.80;78.70;;;;;;4947933;28;20067;-38
2022/09/13 12:08:02;;;;;;;2.28;0.43;;;22.80;76.00;;;;;;4950118;28;20611;-37
2022/09/13 12:11:13;;;;;;;3.08;0.30;;;23.00;75.70;;;;;;4943073;28;20178;-36
2022/09/13 12:13:53;;;;;;;4.07;0.50;;;23.20;76.60;;;;;;4875596;29;20092;-38
2022/09/13 12:16:25;;;;;;;4.18;0.52;;;23.50;76.80;;;;;;4941187;28;20379;-37
2022/09/13 12:18:56;;;;;;;3.38;0.40;;;23.60;74.70;;;;;;4952432;28;20192;-39
2022/09/13 12:21:25;;;;;;;3.30;0.50;;;23.60;74.50;;;;;;4955191;29;20122;-38
2022/09/13 12:24:01;;;;;;;1.85;0.68;;;23.60;74.10;;;;;;4951308;28;20047;-38
2022/09/13 12:26:32;;;;;;;2.72;0.47;;;23.70;75.30;;;;;;4942589;28;20042;-37
2022/09/13 12:29:21;;;;;;;1.00;0.30;;;23.80;73.40;;;;;;4947947;28;20036;-39
2022/09/13 12:31:46;;;;;;;3.40;0.47;;;24.00;71.90;;;;;;4948077;28;20057;-39
2022/09/13 12:34:44;;;;;;;4.15;0.43;;;23.90;72.50;;;;;;4953052;29;20400;-39
2022/09/13 12:37:38;;;;;;;2.75;0.77;;;24.00;72.00;;;;;;4950613;28;20054;-38
2022/09/13 12:40:10;;;;;;;2.85;0.50;;;24.00;70.50;;;;;;4948348;28;20039;-38
2022/09/13 12:42:47;;;;;;;6.03;0.55;;;24.10;70.50;;;;;;4948888;28;20055;-39
2022/09/13 12:45:48;;;;;;;3.42;0.40;;;24.40;69.90;;;;;;4940819;28;20098;-39
2022/09/13 12:48:43;;;;;;;4.32;0.40;;;24.50;66.10;;;;;;4939621;28;20488;-40
2022/09/13 12:51:23;;;;;;;4.82;0.50;;;24.60;65.20;;;;;;4929398;28;20123;-38
2022/09/13 12:54:24;;;;;;;3.00;0.40;;;24.80;67.90;;;;;;4950806;28;20047;-38
2022/09/13 12:57:14;;;;;;;3.03;0.40;;;24.90;58.70;;;;;;4911757;28;20172;-38
2022/09/13 12:59:51;;;;;;;2.38;0.32;;;25.10;64.20;;;;;;4949881;28;20031;-37
2022/09/13 13:02:44;;;;;;;2.88;0.50;;;25.30;60.00;;;;;;4947524;28;20071;-38
2022/09/13 13:05:27;;;;;;;;;;;25.60;60.50;;;;;;4953297;29;20071;-39
2022/09/13 13:07:57;;;;;;;3.67;0.55;;;25.80;52.10;;;;;;4947327;28;19926;-38
2022/09/13 13:10:29;;;;;;;1.88;0.30;;;25.90;55.70;;;;;;4948865;28;20134;-37
2022/09/13 13:13:08;;;;;;;3.10;0.30;;;26.20;55.90;;;;;;4930603;29;20059;-38
2022/09/13 13:15:37;;;;;;;3.20;0.43;;;26.50;53.20;;;;;;4944551;28;20035;-38
2022/09/13 13:18:23;;;;;;;2.92;0.40;;;26.30;49.50;;;;;;4946669;28;20039;-38
2022/09/13 13:20:54;;;;;;;3.40;0.40;;;26.60;46.90;;;;;;4949386;28;20122;-38